createdAt,value
2022-10-17T00:01:11.338Z,11.10
2022-10-17T00:03:40.195Z,18.50
2022-10-17T00:06:12.688Z,11.80
2022-10-17T00:08:42.133Z,12.00
2022-10-17T00:11:16.692Z,17.10
2022-10-17T00:13:47.099Z,10.60
2022-10-17T00:16:16.693Z,9.80
2022-10-17T00:18:45.002Z,12.30
2022-10-17T00:21:17.887Z,13.60
2022-10-17T00:23:47.223Z,12.10
2022-10-17T00:26:16.197Z,9.70
2022-10-17T00:28:53.564Z,12.00
2022-10-17T00:31:23.385Z,10.30
2022-10-17T00:33:52.405Z,14.20
2022-10-17T00:36:23.612Z,11.80
2022-10-17T00:38:57.757Z,12.80
2022-10-17T00:41:31.988Z,11.00
2022-10-17T00:44:04.525Z,9.70
2022-10-17T00:46:39.144Z,9.90
2022-10-17T00:49:12.776Z,11.00
2022-10-17T00:51:43.261Z,13.20
2022-10-17T00:54:14.369Z,10.50
2022-10-17T00:56:43.734Z,12.50
2022-10-17T00:59:14.003Z,13.70
2022-10-17T01:01:47.126Z,8.80
2022-10-17T01:04:15.970Z,9.60
2022-10-17T01:06:44.074Z,10.00
2022-10-17T01:09:12.281Z,9.40
2022-10-17T01:12:13.277Z,14.70
2022-10-17T01:15:00.348Z,8.90
2022-10-17T01:18:03.116Z,9.00
2022-10-17T01:21:09.910Z,8.30
2022-10-17T01:23:49.094Z,10.80
2022-10-17T01:26:23.276Z,11.20
2022-10-17T01:29:16.600Z,8.00
2022-10-17T01:31:47.919Z,9.40
2022-10-17T01:34:41.445Z,9.40
2022-10-17T01:37:14.881Z,13.90
2022-10-17T01:39:58.325Z,20.80
2022-10-17T01:42:59.029Z,11.20
2022-10-17T01:45:35.245Z,18.00
2022-10-17T01:48:10.115Z,10.20
2022-10-17T01:50:44.738Z,9.00
2022-10-17T01:53:28.521Z,9.60
2022-10-17T01:56:02.288Z,11.30
2022-10-17T01:58:42.359Z,8.60
2022-10-17T02:01:12.756Z,10.00
2022-10-17T02:03:43.862Z,11.20
2022-10-17T02:06:12.322Z,8.40
2022-10-17T02:08:43.845Z,11.80
2022-10-17T02:11:21.487Z,7.90
2022-10-17T02:14:14.889Z,8.90
2022-10-17T02:16:58.006Z,8.80
2022-10-17T02:19:44.500Z,15.40
2022-10-17T02:22:12.706Z,13.60
2022-10-17T02:24:49.782Z,9.40
2022-10-17T02:27:20.893Z,12.80
2022-10-17T02:29:54.475Z,9.70
2022-10-17T02:32:35.242Z,10.00
2022-10-17T02:35:07.614Z,7.70
2022-10-17T02:37:36.692Z,11.50
2022-10-17T02:40:07.083Z,9.90
2022-10-17T02:42:39.544Z,8.50
2022-10-17T02:45:09.125Z,9.60
2022-10-17T02:48:00.174Z,9.40
2022-10-17T02:50:38.251Z,11.80
2022-10-17T02:53:11.837Z,9.70
2022-10-17T02:55:55.375Z,12.80
2022-10-17T02:58:32.163Z,13.60
2022-10-17T03:01:02.219Z,10.40
2022-10-17T03:03:32.521Z,11.00
2022-10-17T03:06:03.216Z,17.80
2022-10-17T03:08:31.389Z,12.80
2022-10-17T03:10:59.545Z,11.00
2022-10-17T03:13:29.974Z,11.20
2022-10-17T03:15:58.361Z,10.30
2022-10-17T03:18:26.358Z,17.50
2022-10-17T03:20:57.634Z,9.00
2022-10-17T03:23:25.825Z,10.00
2022-10-17T03:25:54.078Z,9.00
2022-10-17T03:28:22.358Z,9.00
2022-10-17T03:30:50.518Z,8.60
2022-10-17T03:33:18.575Z,9.20
2022-10-17T03:35:46.746Z,12.10
2022-10-17T03:38:15.255Z,11.00
2022-10-17T03:40:43.340Z,8.30
2022-10-17T03:43:12.141Z,9.60
2022-10-17T03:45:40.835Z,10.70
2022-10-17T03:48:08.993Z,8.30
2022-10-17T03:50:37.020Z,10.80
2022-10-17T03:53:05.149Z,14.60
2022-10-17T03:55:33.539Z,11.80
2022-10-17T03:58:01.504Z,10.90
2022-10-17T04:00:29.979Z,8.10
2022-10-17T04:02:58.832Z,12.10
2022-10-17T04:05:27.284Z,11.60
2022-10-17T04:07:55.328Z,10.50
2022-10-17T04:10:29.728Z,10.00
2022-10-17T04:12:58.088Z,8.70
2022-10-17T04:15:26.388Z,8.40
2022-10-17T04:17:55.061Z,9.10
2022-10-17T04:20:29.696Z,10.60
2022-10-17T04:23:01.962Z,9.30
2022-10-17T04:25:33.375Z,9.60
2022-10-17T04:28:04.210Z,16.70
2022-10-17T04:30:33.389Z,14.30
2022-10-17T04:33:01.572Z,8.90
2022-10-17T04:35:31.405Z,9.50
2022-10-17T04:38:03.377Z,9.80
2022-10-17T04:40:31.566Z,10.20
2022-10-17T04:43:00.243Z,12.20
2022-10-17T04:45:35.490Z,10.90
2022-10-17T04:48:07.633Z,12.70
2022-10-17T04:50:35.863Z,15.70
2022-10-17T04:53:49.221Z,88.50
2022-10-17T04:56:22.151Z,24.40
2022-10-17T04:58:51.440Z,10.90
2022-10-17T05:01:23.247Z,9.20
2022-10-17T05:04:09.667Z,14.20
2022-10-17T05:06:50.342Z,13.30
2022-10-17T05:09:46.317Z,51.00
2022-10-17T05:12:22.557Z,85.00
2022-10-17T05:14:52.671Z,53.80
2022-10-17T05:17:23.945Z,28.10
2022-10-17T05:19:59.860Z,15.20
2022-10-17T05:22:29.821Z,19.50
2022-10-17T05:25:01.811Z,33.80
2022-10-17T05:27:36.610Z,14.60
2022-10-17T05:30:12.235Z,17.00
2022-10-17T05:32:54.106Z,40.30
2022-10-17T05:35:33.263Z,36.50
2022-10-17T10:22:30.242Z,7.20
2022-10-17T10:25:19.412Z,4.90
2022-10-17T10:27:48.142Z,5.10
2022-10-17T10:30:23.139Z,8.30
2022-10-17T10:32:51.708Z,5.00
2022-10-17T10:35:32.213Z,5.50
2022-10-17T10:38:10.623Z,6.00
2022-10-17T10:40:50.283Z,4.50
2022-10-17T10:43:47.252Z,8.40
2022-10-17T10:46:26.457Z,6.10
2022-10-17T10:49:01.525Z,3.00
2022-10-17T10:51:50.931Z,2.60
2022-10-17T10:58:49.047Z,3.00
2022-10-17T11:01:59.420Z,4.20
2022-10-17T11:04:29.471Z,3.80
2022-10-17T11:07:25.594Z,3.40
2022-10-17T11:10:23.149Z,7.50
2022-10-17T11:13:14.940Z,3.40
2022-10-17T11:15:57.280Z,6.30
2022-10-17T11:18:44.378Z,5.50
2022-10-17T11:21:36.854Z,5.70
2022-10-17T11:24:09.339Z,4.80
2022-10-17T11:26:49.162Z,5.20
2022-10-17T11:29:17.837Z,4.40
2022-10-17T11:31:52.156Z,2.90
2022-10-17T11:34:25.396Z,4.40
2022-10-17T11:36:59.571Z,4.90
2022-10-17T11:40:03.776Z,5.30
2022-10-17T11:42:41.095Z,8.10
2022-10-17T11:45:15.405Z,6.40
2022-10-17T11:47:54.963Z,4.50
2022-10-17T11:53:22.202Z,6.10
2022-10-17T11:55:52.050Z,6.70
2022-10-17T11:58:35.949Z,5.50
2022-10-17T12:01:12.320Z,6.20
2022-10-17T12:03:42.271Z,5.20
2022-10-17T12:06:29.516Z,6.50
2022-10-17T12:09:18.959Z,5.10
2022-10-17T12:11:53.580Z,4.80
2022-10-17T12:14:41.143Z,6.40
2022-10-17T12:17:38.513Z,6.30
2022-10-17T12:20:21.414Z,5.60
2022-10-17T12:22:50.165Z,6.20
2022-10-17T12:25:24.138Z,4.90
2022-10-17T12:28:06.423Z,5.60
2022-10-17T12:30:34.118Z,6.00
2022-10-17T12:33:11.047Z,7.60
2022-10-17T12:35:38.840Z,6.30
2022-10-17T12:38:25.987Z,7.60
2022-10-17T12:41:01.294Z,10.50
2022-10-17T12:45:58.726Z,7.00
2022-10-17T12:48:38.000Z,8.30
2022-10-17T12:51:34.139Z,7.30
2022-10-17T12:56:49.232Z,7.60
2022-10-17T12:59:25.945Z,7.50
2022-10-17T13:01:59.087Z,8.70
2022-10-17T13:04:28.556Z,7.70
2022-10-17T13:06:58.657Z,8.60
2022-10-17T13:09:30.417Z,5.70
2022-10-17T13:12:03.439Z,5.30
2022-10-17T13:14:32.777Z,4.60
2022-10-17T13:17:05.639Z,5.60
2022-10-17T13:19:45.249Z,7.40
2022-10-17T13:22:27.667Z,6.70
2022-10-17T13:25:27.368Z,9.00
2022-10-17T13:28:13.351Z,8.00
2022-10-17T13:30:46.238Z,6.80
2022-10-17T13:33:31.158Z,7.20
2022-10-17T13:36:00.788Z,5.90
2022-10-17T13:38:32.260Z,4.70
2022-10-17T13:41:30.164Z,6.20
2022-10-17T13:43:52.441Z,5.00
2022-10-17T13:46:39.113Z,5.50
2022-10-17T13:49:26.197Z,4.90
2022-10-17T13:51:57.399Z,6.70
2022-10-17T13:54:30.386Z,5.40
2022-10-17T13:57:00.736Z,5.50
2022-10-17T13:59:39.790Z,4.20
2022-10-17T14:02:15.075Z,4.50
2022-10-17T14:05:11.590Z,6.40
2022-10-17T14:08:09.876Z,4.50
2022-10-17T14:10:39.096Z,5.50
2022-10-17T14:13:18.586Z,10.80
2022-10-17T14:15:46.247Z,7.70
2022-10-17T14:18:21.347Z,8.70
2022-10-17T14:23:43.702Z,6.00
2022-10-17T14:26:15.361Z,5.70
2022-10-17T14:28:45.697Z,9.40
2022-10-17T14:31:15.192Z,8.90
2022-10-17T14:33:50.590Z,5.90
2022-10-17T14:36:21.513Z,7.20
2022-10-17T14:38:51.747Z,6.70
2022-10-17T14:44:23.672Z,6.00
2022-10-17T14:47:30.735Z,6.30
2022-10-17T14:50:12.052Z,4.80
2022-10-17T14:52:40.552Z,4.70
2022-10-17T14:55:23.144Z,9.40
2022-10-17T14:57:50.226Z,47.90
2022-10-17T15:00:18.891Z,81.60
2022-10-17T15:02:46.740Z,110.90
2022-10-17T15:05:14.989Z,122.10
2022-10-17T15:07:42.171Z,144.50
2022-10-17T15:10:36.792Z,138.50
2022-10-17T15:13:26.554Z,106.90
2022-10-17T15:15:51.557Z,51.80
2022-10-17T15:18:18.917Z,25.20
2022-10-17T15:20:45.586Z,17.60
2022-10-17T15:23:12.269Z,28.30
2022-10-17T15:25:39.401Z,19.60
2022-10-17T15:28:06.051Z,17.20
2022-10-17T15:30:35.977Z,19.90
2022-10-17T15:33:03.177Z,13.30
2022-10-17T15:35:30.696Z,42.70
2022-10-17T15:37:57.429Z,53.70
2022-10-17T15:40:30.049Z,18.00
2022-10-17T15:42:56.870Z,16.90
2022-10-17T15:45:24.196Z,28.70
2022-10-17T15:48:02.234Z,96.10
2022-10-17T15:50:29.970Z,39.00
2022-10-17T15:52:56.765Z,46.00
2022-10-17T15:55:24.218Z,47.30
2022-10-17T15:57:51.040Z,42.00
2022-10-17T16:00:23.367Z,35.50
2022-10-17T16:02:50.648Z,109.50
2022-10-17T16:05:25.073Z,138.80
2022-10-17T16:07:53.402Z,100.00
2022-10-17T16:10:21.675Z,57.90
2022-10-17T16:12:49.481Z,34.00
2022-10-17T16:15:24.500Z,48.20
2022-10-17T16:17:53.198Z,36.80
2022-10-17T16:20:21.234Z,50.70
2022-10-17T16:22:50.122Z,60.50
2022-10-17T16:25:24.671Z,76.60
2022-10-17T16:27:54.341Z,80.20
2022-10-17T16:32:56.369Z,113.40
2022-10-17T16:35:33.078Z,92.50
2022-10-17T16:38:05.325Z,92.20
2022-10-17T16:40:32.795Z,92.00
2022-10-17T16:42:59.595Z,99.00
2022-10-17T16:45:26.275Z,101.60
2022-10-17T16:47:53.007Z,98.80
2022-10-17T16:50:20.040Z,101.10
2022-10-17T16:52:46.994Z,106.10
2022-10-17T16:55:13.984Z,102.60
2022-10-17T17:00:12.252Z,93.30
2022-10-17T17:02:39.080Z,65.90
2022-10-17T17:05:06.789Z,63.90
2022-10-17T17:07:34.066Z,65.00
2022-10-17T17:10:00.749Z,58.20
2022-10-17T17:12:27.439Z,53.40
2022-10-17T17:14:54.169Z,51.10
2022-10-17T17:17:44.578Z,65.40
2022-10-17T17:20:07.779Z,61.80
2022-10-17T17:22:34.633Z,50.60
2022-10-17T17:25:01.359Z,43.60
2022-10-17T17:27:28.474Z,39.50
2022-10-17T17:29:55.460Z,37.00
2022-10-17T17:32:22.314Z,35.80
2022-10-17T17:34:49.127Z,33.10
2022-10-17T17:37:15.782Z,15.90
2022-10-17T17:39:42.364Z,15.80
2022-10-17T17:42:09.213Z,30.80
2022-10-17T17:44:36.040Z,19.80
2022-10-17T17:47:02.766Z,61.20
2022-10-17T17:49:29.713Z,63.50
2022-10-17T17:51:56.518Z,85.10
2022-10-17T17:54:23.279Z,133.40
2022-10-17T17:56:50.071Z,47.80
2022-10-17T17:59:16.814Z,31.60
2022-10-17T18:01:43.707Z,72.40
2022-10-17T18:04:11.548Z,33.80
2022-10-17T18:06:39.312Z,29.00
2022-10-17T18:09:07.097Z,33.40
2022-10-17T18:11:34.776Z,30.10
2022-10-17T18:14:04.656Z,28.50
2022-10-17T18:16:33.667Z,27.00
2022-10-17T18:19:06.613Z,28.30
2022-10-17T18:21:35.507Z,27.70
2022-10-17T18:24:04.264Z,29.30
2022-10-17T18:26:31.138Z,31.60
2022-10-17T18:28:57.842Z,32.70
2022-10-17T18:31:27.983Z,39.20
2022-10-17T18:33:57.260Z,28.10
2022-10-17T18:36:25.649Z,34.10
2022-10-17T18:38:53.543Z,59.20
2022-10-17T18:41:23.171Z,47.70
2022-10-17T18:43:51.368Z,48.70
2022-10-17T18:46:21.135Z,38.50
2022-10-17T18:48:49.413Z,52.30
2022-10-17T18:51:19.809Z,104.00
2022-10-17T18:53:49.403Z,78.20
2022-10-17T18:56:17.664Z,89.40
2022-10-17T18:58:45.359Z,55.60
2022-10-17T19:01:15.703Z,30.20
2022-10-17T19:03:44.343Z,28.80
2022-10-17T19:06:13.912Z,31.00
2022-10-17T19:08:41.917Z,35.10
2022-10-17T19:11:12.658Z,40.70
2022-10-17T19:13:40.425Z,34.30
2022-10-17T19:16:18.974Z,38.70
2022-10-17T19:18:55.863Z,32.70
2022-10-17T19:21:23.075Z,30.20
2022-10-17T19:23:52.436Z,29.10
2022-10-17T19:26:20.526Z,27.90
2022-10-17T19:28:47.808Z,28.90
2022-10-17T19:31:17.945Z,26.00
2022-10-17T19:33:45.491Z,25.00
2022-10-17T19:36:13.140Z,27.30
2022-10-17T19:38:40.044Z,24.30
2022-10-17T19:41:08.886Z,28.00
2022-10-17T19:43:40.159Z,26.50
2022-10-17T19:46:11.847Z,27.40
2022-10-17T19:48:38.759Z,26.90
2022-10-17T19:51:12.275Z,33.00
2022-10-17T19:53:39.410Z,27.10
2022-10-17T19:56:06.821Z,32.40
2022-10-17T19:58:43.073Z,31.40
2022-10-17T20:01:12.106Z,27.60
2022-10-17T20:03:38.934Z,27.10
2022-10-17T20:06:06.279Z,30.60
2022-10-17T20:08:33.329Z,30.70
2022-10-17T20:11:08.896Z,30.50
2022-10-17T20:13:36.425Z,25.80
2022-10-17T20:16:04.814Z,28.90
2022-10-17T20:18:32.069Z,29.80
2022-10-17T20:21:05.403Z,30.10
2022-10-17T20:23:32.453Z,31.20
2022-10-17T20:26:25.526Z,32.30
2022-10-17T20:28:53.093Z,38.10
2022-10-17T20:31:20.374Z,37.30
2022-10-17T20:33:47.157Z,20.00
2022-10-17T20:36:14.244Z,35.00
2022-10-17T20:38:41.116Z,53.20
2022-10-17T20:41:09.722Z,37.20
2022-10-17T20:43:37.469Z,38.80
2022-10-17T20:46:15.786Z,50.70
2022-10-17T20:48:54.399Z,52.00
2022-10-17T20:51:21.398Z,44.70
2022-10-17T20:53:48.771Z,37.00
2022-10-17T20:56:25.308Z,42.00
2022-10-17T20:58:54.713Z,40.60
2022-10-17T21:01:22.348Z,34.80
2022-10-17T21:03:49.483Z,35.90
2022-10-17T21:06:17.386Z,30.70
2022-10-17T21:08:45.486Z,31.10
2022-10-17T21:11:16.236Z,40.70
2022-10-17T21:13:44.010Z,44.80
2022-10-17T21:16:13.671Z,126.40
2022-10-17T21:18:41.035Z,31.90
2022-10-17T21:21:10.872Z,26.70
2022-10-17T21:23:39.145Z,26.80
2022-10-17T21:26:09.954Z,114.20
2022-10-17T21:28:37.079Z,45.70
2022-10-17T21:31:20.185Z,45.50
2022-10-17T21:33:49.875Z,36.40
2022-10-17T21:36:17.943Z,41.80
2022-10-17T21:38:46.495Z,38.30
2022-10-17T21:41:15.790Z,36.20
2022-10-17T21:43:42.845Z,30.50
2022-10-17T21:46:12.187Z,30.70
2022-10-17T21:48:39.091Z,30.70
2022-10-17T21:51:09.529Z,34.90
2022-10-17T21:53:37.145Z,28.90
2022-10-17T21:56:06.982Z,28.90
2022-10-17T21:58:33.987Z,20.30
2022-10-17T22:01:14.719Z,23.00
2022-10-17T22:03:46.814Z,20.40
2022-10-17T22:09:05.648Z,20.60
2022-10-17T22:11:34.972Z,17.90
2022-10-17T22:14:05.427Z,17.90
2022-10-17T22:16:33.034Z,20.00
2022-10-17T22:19:04.929Z,14.70
2022-10-17T22:21:35.502Z,14.50
2022-10-17T22:24:05.972Z,16.40
2022-10-17T22:26:34.494Z,14.00
2022-10-17T22:29:01.705Z,13.30
2022-10-17T22:31:28.504Z,13.20
2022-10-17T22:33:55.685Z,13.00
2022-10-17T22:36:22.516Z,17.60
2022-10-17T22:38:49.840Z,12.30
2022-10-17T22:41:17.289Z,13.20
2022-10-17T22:43:44.330Z,14.80
2022-10-17T22:46:13.242Z,13.40
2022-10-17T22:48:40.022Z,13.30
2022-10-17T22:51:06.887Z,13.30
2022-10-17T22:53:34.685Z,15.70
2022-10-17T22:56:06.287Z,15.10
2022-10-17T22:58:34.485Z,18.80
2022-10-17T23:01:02.399Z,17.20
2022-10-17T23:03:30.857Z,17.60
2022-10-17T23:05:58.188Z,21.30
2022-10-17T23:08:26.735Z,11.50
2022-10-17T23:10:53.826Z,14.30
2022-10-17T23:13:21.400Z,14.80
2022-10-17T23:15:56.110Z,28.90
2022-10-17T23:18:24.940Z,16.20
2022-10-17T23:20:52.717Z,15.00
2022-10-17T23:23:20.310Z,12.80
2022-10-17T23:25:47.878Z,15.50
2022-10-17T23:28:14.965Z,14.40
2022-10-17T23:30:41.836Z,13.30
2022-10-17T23:33:11.200Z,12.80
2022-10-17T23:35:38.049Z,17.00
2022-10-17T23:38:04.711Z,9.50
2022-10-17T23:40:31.606Z,10.00
2022-10-17T23:42:58.545Z,14.90
2022-10-17T23:45:25.256Z,10.20
2022-10-17T23:47:52.140Z,11.30
2022-10-17T23:50:18.769Z,10.80
2022-10-17T23:52:45.501Z,10.60
2022-10-17T23:55:12.370Z,13.00
2022-10-17T23:57:39.010Z,11.70
